
Distance (Route):
Temperature : 25.7°C
Humidity : 44.0%
Pressure : 0hPa| Receiver | Date | Latitude | Longitude | Direction | Speed | Altitude | Climb | Temperature | Humidity | Pressure | Voltage | Killtimer | Uptime | BKT | XDATA |
|---|---|---|---|---|---|---|---|---|---|---|---|---|---|---|---|
| LZ4TU-5 | 2026-08-30 19:09:49 | 44.11307 | 23.03944 | 283° | 16km/h | 731m | -9.5m/s | 25.7°C | 44.0% | 0hPa | 0V | 00:00:00 | 00:00:00 | 00:00:00 | |
| LZ4TU-5 | 2026-08-30 19:09:39 | 44.11299 | 23.03999 | 278° | 15km/h | 829m | -9.7m/s | 24.9°C | 45.7% | 0hPa | 0V | 00:00:00 | 00:00:00 | 00:00:00 | |
| LZ4TU-5 | 2026-08-30 19:09:35 | 44.11298 | 23.04020 | 274° | 15km/h | 868m | -9.6m/s | 24.5°C | 46.4% | 0hPa | 0V | 00:00:00 | 00:00:00 | 00:00:00 | |
| LZ4TU-5 | 2026-08-30 19:09:30 | 44.11297 | 23.04046 | 278° | 15km/h | 918m | -9.2m/s | 24.1°C | 47.4% | 0hPa | 0V | 00:00:00 | 00:00:00 | 00:00:00 | |
| LZ4TU-5 | 2026-08-30 19:09:26 | 44.11296 | 23.04069 | 273° | 16km/h | 954m | -9.7m/s | 23.7°C | 48.2% | 0hPa | 0V | 00:00:00 | 00:00:00 | 00:00:00 | |
| LZ4TU-5 | 2026-08-30 19:09:21 | 44.11294 | 23.04097 | 279° | 16km/h | 991m | -9.6m/s | 23.3°C | 48.9% | 0hPa | 0V | 00:00:00 | 00:00:00 | 00:00:00 | |
| LZ4TU-5 | 2026-08-30 19:09:17 | 44.11292 | 23.04119 | 276° | 15km/h | 1032m | -9.7m/s | 23.0°C | 49.0% | 0hPa | 0V | 00:00:00 | 00:00:00 | 00:00:00 | |
| LZ4TU-5 | 2026-08-30 19:09:12 | 44.11290 | 23.04142 | 284° | 11km/h | 1081m | -9.4m/s | 22.6°C | 49.2% | 0hPa | 0V | 00:00:00 | 00:00:00 | 00:00:00 | |
| LZ4TU-5 | 2026-08-30 19:09:07 | 44.11285 | 23.04159 | 293° | 9km/h | 1132m | -10.2m/s | 22.3°C | 49.3% | 0hPa | 0V | 00:00:00 | 00:00:00 | 00:00:00 | |
| LZ4TU-5 | 2026-08-30 19:09:03 | 44.11282 | 23.04169 | 309° | 7km/h | 1173m | -9.6m/s | 22.2°C | 47.8% | 0hPa | 0V | 00:00:00 | 00:00:00 | 00:00:00 | |
| LZ4TU-5 | 2026-08-30 19:08:59 | 44.11277 | 23.04177 | 313° | 7km/h | 1213m | -9.6m/s | 21.8°C | 48.6% | 0hPa | 0V | 00:00:00 | 00:00:00 | 00:00:00 | |
| LZ4TU-5 | 2026-08-30 19:08:54 | 44.11272 | 23.04184 | 336° | 5km/h | 1266m | -9.9m/s | 21.3°C | 49.3% | 0hPa | 0V | 00:00:00 | 00:00:00 | 00:00:00 | |
| LZ4TU-5 | 2026-08-30 19:08:49 | 44.11264 | 23.04188 | 350° | 5km/h | 1318m | -10.1m/s | 20.9°C | 49.2% | 0hPa | 0V | 00:00:00 | 00:00:00 | 00:00:00 | |
| LZ4TU-5 | 2026-08-30 19:08:44 | 44.11256 | 23.04187 | 1° | 5km/h | 1369m | -9.9m/s | 20.5°C | 50.3% | 0hPa | 0V | 00:00:00 | 00:00:00 | 00:00:00 | |
| LZ4TU-5 | 2026-08-30 19:08:39 | 44.11247 | 23.04187 | 358° | 9km/h | 1411m | -9.7m/s | 20.0°C | 51.5% | 0hPa | 0V | 00:00:00 | 00:00:00 | 00:00:00 | |
| LZ4TU-5 | 2026-08-30 19:08:35 | 44.11237 | 23.04188 | 357° | 9km/h | 1452m | -10.1m/s | 19.7°C | 51.8% | 0hPa | 0V | 00:00:00 | 00:00:00 | 00:00:00 | |
| LZ4TU-5 | 2026-08-30 19:08:25 | 44.11216 | 23.04186 | 4° | 7km/h | 1560m | -10.6m/s | 18.8°C | 50.5% | 0hPa | 0V | 00:00:00 | 00:00:00 | 00:00:00 | |
| LZ4TU-5 | 2026-08-30 19:08:20 | 44.11206 | 23.04185 | 16° | 9km/h | 1615m | -10.5m/s | 18.6°C | 49.9% | 0hPa | 0V | 00:00:00 | 00:00:00 | 00:00:00 | |
| LZ4TU-5 | 2026-08-30 19:08:15 | 44.11195 | 23.04181 | 20° | 9km/h | 1666m | -10.2m/s | 18.2°C | 53.9% | 0hPa | 0V | 00:00:00 | 00:00:00 | 00:00:00 | |
| LZ4TU-5 | 2026-08-30 19:08:10 | 44.11184 | 23.04174 | 27° | 9km/h | 1714m | -10.4m/s | 17.9°C | 55.9% | 0hPa | 0V | 00:00:00 | 00:00:00 | 00:00:00 | |
| LZ4TU-5 | 2026-08-30 19:08:05 | 44.11175 | 23.04172 | 24° | 5km/h | 1754m | -10.1m/s | 17.5°C | 57.5% | 0hPa | 0V | 00:00:00 | 00:00:00 | 00:00:00 | |
| LZ4TU-5 | 2026-08-30 19:08:01 | 44.11168 | 23.04168 | 13° | 7km/h | 1796m | -10.4m/s | 17.2°C | 58.6% | 0hPa | 0V | 00:00:00 | 00:00:00 | 00:00:00 | |
| LZ4TU-5 | 2026-08-30 19:07:57 | 44.11161 | 23.04165 | 18° | 7km/h | 1838m | -10.1m/s | 16.8°C | 59.6% | 0hPa | 0V | 00:00:00 | 00:00:00 | 00:00:00 | |
| LZ4TU-5 | 2026-08-30 19:07:52 | 44.11153 | 23.04160 | 24° | 7km/h | 1890m | -10.5m/s | 16.4°C | 61.9% | 0hPa | 0V | 00:00:00 | 00:00:00 | 00:00:00 | |
| LZ4TU-5 | 2026-08-30 19:07:48 | 44.11145 | 23.04155 | 30° | 9km/h | 1934m | -10.7m/s | 16.0°C | 63.2% | 0hPa | 0V | 00:00:00 | 00:00:00 | 00:00:00 | |
| LZ4TU-5 | 2026-08-30 19:07:43 | 44.11136 | 23.04146 | 39° | 9km/h | 1988m | -10.0m/s | 15.5°C | 64.6% | 0hPa | 0V | 00:00:00 | 00:00:00 | 00:00:00 | |
| LZ4TU-5 | 2026-08-30 19:07:39 | 44.11129 | 23.04137 | 42° | 9km/h | 2031m | -10.8m/s | 15.1°C | 65.3% | 0hPa | 0V | 00:00:00 | 00:00:00 | 00:00:00 | |
| LZ4TU-5 | 2026-08-30 19:07:34 | 44.11120 | 23.04124 | 51° | 11km/h | 2087m | -11.4m/s | 14.7°C | 65.4% | 0hPa | 0V | 00:00:00 | 00:00:00 | 00:00:00 | |
| LZ4TU-5 | 2026-08-30 19:07:29 | 44.11111 | 23.04108 | 61° | 11km/h | 2143m | -11.2m/s | 14.2°C | 66.2% | 0hPa | 0V | 00:00:00 | 00:00:00 | 00:00:00 | |
| LZ4TU-5 | 2026-08-30 19:07:24 | 44.11107 | 23.04090 | 72° | 13km/h | 2199m | -11.4m/s | 13.7°C | 67.8% | 0hPa | 0V | 00:00:00 | 00:00:00 | 00:00:00 | |
| LZ4TU-5 | 2026-08-30 19:07:20 | 44.11101 | 23.04073 | 80° | 13km/h | 2229m | -10.5m/s | 13.3°C | 69.7% | 0hPa | 0V | 00:00:00 | 00:00:00 | 00:00:00 | |
| LZ4TU-5 | 2026-08-30 19:07:15 | 44.11097 | 23.04050 | 76° | 15km/h | 2282m | -10.4m/s | 12.8°C | 71.6% | 0hPa | 0V | 00:00:00 | 00:00:00 | 00:00:00 | |
| LZ4TU-5 | 2026-08-30 19:07:10 | 44.11092 | 23.04023 | 73° | 15km/h | 2337m | -10.7m/s | 12.4°C | 73.7% | 0hPa | 0V | 00:00:00 | 00:00:00 | 00:00:00 | |
| LZ4TU-5 | 2026-08-30 19:07:05 | 44.11086 | 23.04000 | 76° | 15km/h | 2392m | -10.4m/s | 11.9°C | 73.9% | 0hPa | 0V | 00:00:00 | 00:00:00 | 00:00:00 | |
| LZ4TU-5 | 2026-08-30 19:07:00 | 44.11082 | 23.03976 | 76° | 15km/h | 2447m | -10.9m/s | 11.6°C | 70.2% | 0hPa | 0V | 00:00:00 | 00:00:00 | 00:00:00 | |
| LZ4TU-5 | 2026-08-30 19:06:55 | 44.11079 | 23.03953 | 88° | 13km/h | 2502m | -10.3m/s | 11.3°C | 69.3% | 0hPa | 0V | 00:00:00 | 00:00:00 | 00:00:00 | |
| LZ4TU-5 | 2026-08-30 19:06:50 | 44.11078 | 23.03931 | 90° | 11km/h | 2558m | -10.4m/s | 11.0°C | 67.9% | 0hPa | 0V | 00:00:00 | 00:00:00 | 00:00:00 | |
| LZ4TU-5 | 2026-08-30 19:06:45 | 44.11079 | 23.03912 | 92° | 11km/h | 2612m | -10.9m/s | 10.7°C | 65.7% | 0hPa | 0V | 00:00:00 | 00:00:00 | 00:00:00 | |
| LZ4TU-5 | 2026-08-30 19:06:40 | 44.11078 | 23.03892 | 79° | 13km/h | 2664m | -10.5m/s | 10.3°C | 66.5% | 0hPa | 0V | 00:00:00 | 00:00:00 | 00:00:00 | |
| LZ4TU-5 | 2026-08-30 19:06:35 | 44.11076 | 23.03869 | 89° | 13km/h | 2713m | -10.8m/s | 10.0°C | 63.9% | 0hPa | 0V | 00:00:00 | 00:00:00 | 00:00:00 | |
| LZ4TU-5 | 2026-08-30 19:06:31 | 44.11075 | 23.03852 | 88° | 11km/h | 2746m | -10.2m/s | 9.7°C | 58.6% | 0hPa | 0V | 00:00:00 | 00:00:00 | 00:00:00 | |
| LZ4TU-5 | 2026-08-30 19:06:26 | 44.11073 | 23.03833 | 84° | 11km/h | 2799m | -9.9m/s | 9.4°C | 58.1% | 0hPa | 0V | 00:00:00 | 00:00:00 | 00:00:00 | |
| LZ4TU-5 | 2026-08-30 19:06:21 | 44.11073 | 23.03814 | 92° | 13km/h | 2851m | -10.4m/s | 9.0°C | 55.8% | 0hPa | 0V | 00:00:00 | 00:00:00 | 00:00:00 | |
| LZ4TU-5 | 2026-08-30 19:06:16 | 44.11072 | 23.03791 | 95° | 13km/h | 2906m | -10.0m/s | 8.6°C | 58.3% | 0hPa | 0V | 00:00:00 | 00:00:00 | 00:00:00 | |
| LZ4TU-5 | 2026-08-30 19:06:12 | 44.11073 | 23.03773 | 92° | 13km/h | 2948m | -10.0m/s | 8.3°C | 58.8% | 0hPa | 0V | 00:00:00 | 00:00:00 | 00:00:00 | |
| LZ4TU-5 | 2026-08-30 19:06:08 | 44.11073 | 23.03757 | 98° | 11km/h | 2989m | -10.1m/s | 8.1°C | 51.7% | 0hPa | 0V | 00:00:00 | 00:00:00 | 00:00:00 | |
| LZ4TU-5 | 2026-08-30 19:06:04 | 44.11076 | 23.03741 | 106° | 13km/h | 3032m | -10.1m/s | 8.0°C | 50.6% | 0hPa | 0V | 00:00:00 | 00:00:00 | 00:00:00 | |
| LZ4TU-5 | 2026-08-30 19:05:59 | 44.11078 | 23.03722 | 104° | 9km/h | 3085m | -10.1m/s | 7.8°C | 44.1% | 0hPa | 0V | 00:00:00 | 00:00:00 | 00:00:00 | |
| LZ4TU-5 | 2026-08-30 19:05:54 | 44.11082 | 23.03707 | 113° | 11km/h | 3140m | -11.3m/s | 7.7°C | 37.7% | 0hPa | 0V | 00:00:00 | 00:00:00 | 00:00:00 | |
| LZ4TU-5 | 2026-08-30 19:05:50 | 44.11086 | 23.03692 | 119° | 9km/h | 3184m | -10.3m/s | 7.1°C | 51.3% | 0hPa | 0V | 00:00:00 | 00:00:00 | 00:00:00 | |
| LZ4TU-5 | 2026-08-30 19:05:45 | 44.11092 | 23.03680 | 113° | 7km/h | 3228m | -10.2m/s | 6.8°C | 49.7% | 0hPa | 0V | 00:00:00 | 00:00:00 | 00:00:00 | |
| LZ4TU-5 | 2026-08-30 19:05:40 | 44.11094 | 23.03672 | 127° | 4km/h | 3276m | -10.6m/s | 7.4°C | 20.3% | 0hPa | 0V | 00:00:00 | 00:00:00 | 00:00:00 | |
| LZ4TU-5 | 2026-08-30 19:05:35 | 44.11099 | 23.03669 | 180° | 7km/h | 3332m | -10.4m/s | 6.9°C | 40.8% | 0hPa | 0V | 00:00:00 | 00:00:00 | 00:00:00 | |
| LZ4TU-5 | 2026-08-30 19:05:30 | 44.11108 | 23.03673 | 219° | 7km/h | 3388m | -10.2m/s | 6.4°C | 54.0% | 0hPa | 0V | 00:00:00 | 00:00:00 | 00:00:00 | |
| LZ4TU-5 | 2026-08-30 19:05:25 | 44.11114 | 23.03682 | 218° | 5km/h | 3444m | -10.7m/s | 5.9°C | 56.0% | 0hPa | 0V | 00:00:00 | 00:00:00 | 00:00:00 | |
| LZ4TU-5 | 2026-08-30 19:05:21 | 44.11121 | 23.03684 | 178° | 9km/h | 3490m | -11.4m/s | 5.6°C | 54.8% | 0hPa | 0V | 00:00:00 | 00:00:00 | 00:00:00 | |
| LZ4TU-5 | 2026-08-30 19:05:17 | 44.11130 | 23.03685 | 180° | 7km/h | 3538m | -10.9m/s | 5.4°C | 42.4% | 0hPa | 0V | 00:00:00 | 00:00:00 | 00:00:00 | |
| LZ4TU-5 | 2026-08-30 19:05:12 | 44.11140 | 23.03684 | 166° | 9km/h | 3594m | -10.9m/s | 4.9°C | 41.7% | 0hPa | 0V | 00:00:00 | 00:00:00 | 00:00:00 | |
| LZ4TU-5 | 2026-08-30 19:05:07 | 44.11151 | 23.03676 | 149° | 9km/h | 3647m | -11.0m/s | 4.6°C | 35.4% | 0hPa | 0V | 00:00:00 | 00:00:00 | 00:00:00 | |
| LZ4TU-5 | 2026-08-30 19:05:02 | 44.11162 | 23.03659 | 127° | 16km/h | 3693m | -10.7m/s | 4.3°C | 33.0% | 0hPa | 0V | 00:00:00 | 00:00:00 | 00:00:00 | |
| LZ4TU-5 | 2026-08-30 19:04:57 | 44.11174 | 23.03640 | 128° | 18km/h | 3740m | -11.1m/s | 3.7°C | 33.4% | 0hPa | 0V | 00:00:00 | 00:00:00 | 00:00:00 | |
| LZ4TU-5 | 2026-08-30 19:04:52 | 44.11188 | 23.03609 | 118° | 22km/h | 3797m | -11.2m/s | 3.1°C | 33.5% | 0hPa | 0V | 00:00:00 | 00:00:00 | 00:00:00 | |
| LZ4TU-5 | 2026-08-30 19:04:48 | 44.11198 | 23.03581 | 116° | 26km/h | 3846m | -11.6m/s | 2.7°C | 33.8% | 0hPa | 0V | 00:00:00 | 00:00:00 | 00:00:00 | |
| LZ4TU-5 | 2026-08-30 19:04:43 | 44.11213 | 23.03541 | 113° | 26km/h | 3904m | -11.1m/s | 2.5°C | 29.1% | 0hPa | 0V | 00:00:00 | 00:00:00 | 00:00:00 | |
| LZ4TU-5 | 2026-08-30 19:04:38 | 44.11225 | 23.03495 | 109° | 29km/h | 3963m | -11.1m/s | 2.2°C | 24.7% | 0hPa | 0V | 00:00:00 | 00:00:00 | 00:00:00 | |
| LZ4TU-5 | 2026-08-30 19:04:33 | 44.11238 | 23.03445 | 110° | 31km/h | 4020m | -10.5m/s | 2.2°C | 26.0% | 0hPa | 0V | 00:00:00 | 00:00:00 | 00:00:00 | |
| LZ4TU-5 | 2026-08-30 19:04:25 | 44.11258 | 23.03366 | 113° | 27km/h | 4116m | -11.5m/s | 1.7°C | 0% | 0hPa | 0V | 00:00:00 | 00:00:00 | 00:00:00 | |
| LZ4TU-5 | 2026-08-30 19:04:20 | 44.11271 | 23.03323 | 114° | 27km/h | 4175m | -10.7m/s | 1.2°C | 23.6% | 0hPa | 0V | 00:00:00 | 00:00:00 | 00:00:00 | |
| LZ4TU-5 | 2026-08-30 19:04:16 | 44.11283 | 23.03288 | 119° | 27km/h | 4221m | -11.1m/s | 0.8°C | 23.3% | 0hPa | 0V | 00:00:00 | 00:00:00 | 00:00:00 | |
| LZ4TU-5 | 2026-08-30 19:04:11 | 44.11301 | 23.03249 | 123° | 27km/h | 4279m | -11.2m/s | 0.4°C | 21.0% | 0hPa | 0V | 00:00:00 | 00:00:00 | 00:00:00 | |
| LZ4TU-5 | 2026-08-30 19:04:07 | 44.11316 | 23.03220 | 127° | 26km/h | 4325m | -10.4m/s | 0.1°C | 20.2% | 0hPa | 0V | 00:00:00 | 00:00:00 | 00:00:00 | |
| LZ4TU-5 | 2026-08-30 19:04:02 | 44.11340 | 23.03182 | 135° | 31km/h | 4379m | -10.2m/s | -0.2°C | 18.8% | 0hPa | 0V | 00:00:00 | 00:00:00 | 00:00:00 | |
| LZ4TU-5 | 2026-08-30 19:03:57 | 44.11366 | 23.03147 | 136° | 27km/h | 4435m | -11.4m/s | -0.3°C | 17.4% | 0hPa | 0V | 00:00:00 | 00:00:00 | 00:00:00 | |
| LZ4TU-5 | 2026-08-30 19:03:52 | 44.11392 | 23.03110 | 134° | 29km/h | 4490m | -10.4m/s | -0.3°C | 13.7% | 0hPa | 0V | 00:00:00 | 00:00:00 | 00:00:00 | |
| LZ4TU-5 | 2026-08-30 19:03:47 | 44.11421 | 23.03063 | 130° | 38km/h | 4541m | -11.4m/s | -0.1°C | 10.2% | 0hPa | 0V | 00:00:00 | 00:00:00 | 00:00:00 | |
| LZ4TU-5 | 2026-08-30 19:03:43 | 44.11444 | 23.03024 | 134° | 38km/h | 4573m | -10.8m/s | -0.3°C | 14.3% | 0hPa | 0V | 00:00:00 | 00:00:00 | 00:00:00 | |
| LZ4TU-5 | 2026-08-30 19:03:38 | 44.11478 | 23.02973 | 133° | 40km/h | 4622m | -10.7m/s | -0.6°C | 25.4% | 0hPa | 0V | 00:00:00 | 00:00:00 | 00:00:00 | |
| LZ4TU-5 | 2026-08-30 19:02:37 | 44.11875 | 23.02295 | 128° | 33km/h | 5340m | -12.7m/s | -5.9°C | 55.4% | 0hPa | 0V | 00:00:00 | 00:00:00 | 00:00:00 | |
| LZ4TU-5 | 2026-08-30 19:02:32 | 44.11902 | 23.02247 | 127° | 37km/h | 5406m | -15.2m/s | -6.4°C | 0% | 0hPa | 0V | 00:00:00 | 00:00:00 | 00:00:00 | |
| LZ4TU-5 | 2026-08-30 19:01:30 | 44.12231 | 23.01608 | 127° | 40km/h | 6290m | -15.2m/s | -12.1°C | 42.9% | 0hPa | 0V | 00:00:00 | 00:00:00 | 00:00:00 | |
| LZ4TU-5 | 2026-08-30 19:01:25 | 44.12264 | 23.01550 | 130° | 37km/h | 6367m | -15.4m/s | -12.6°C | 36.3% | 0hPa | 0V | 00:00:00 | 00:00:00 | 00:00:00 | |
| LZ4TU-5 | 2026-08-30 19:00:21 | 44.12580 | 23.00761 | 120° | 42km/h | 7326m | -16.2m/s | -18.8°C | 33.6% | 0hPa | 0V | 00:00:00 | 00:00:00 | 00:00:00 | |
| LZ4TU-5 | 2026-08-30 19:00:16 | 44.12605 | 23.00700 | 121° | 40km/h | 7393m | -14.9m/s | -19.4°C | 0% | 0hPa | 0V | 00:00:00 | 00:00:00 | 00:00:00 | |
| LZ4TU-5 | 2026-08-30 18:59:15 | 44.12927 | 22.99739 | 115° | 51km/h | 8266m | -13.2m/s | -25.8°C | 48.4% | 0hPa | 0V | 00:00:00 | 00:00:00 | 00:00:00 | |
| LZ4TU-5 | 2026-08-30 18:59:10 | 44.12953 | 22.99655 | 116° | 53km/h | 8334m | -13.2m/s | -26.4°C | 46.7% | 0hPa | 0V | 00:00:00 | 00:00:00 | 00:00:00 | |
| LZ4TU-5 | 2026-08-30 18:58:09 | 44.13353 | 22.98584 | 117° | 58km/h | 9185m | -14.4m/s | -33.6°C | 41.8% | 0hPa | 0V | 00:00:00 | 00:00:00 | 00:00:00 | |
| LZ4TU-5 | 2026-08-30 18:58:04 | 44.13385 | 22.98492 | 116° | 58km/h | 9256m | -13.9m/s | -34.0°C | 0% | 0hPa | 0V | 00:00:00 | 00:00:00 | 00:00:00 | |
| LZ4TU-5 | 2026-08-30 18:57:02 | 44.13688 | 22.97246 | 107° | 62km/h | 10184m | -15.6m/s | -41.2°C | 34.5% | 0hPa | 0V | 00:00:00 | 00:00:00 | 00:00:00 | |
| LZ4TU-5 | 2026-08-30 18:56:58 | 44.13706 | 22.97162 | 106° | 62km/h | 10248m | -15.8m/s | -41.8°C | 36.4% | 0hPa | 0V | 00:00:00 | 00:00:00 | 00:00:00 | |
| LZ4TU-5 | 2026-08-30 18:55:56 | 44.13969 | 22.95882 | 106° | 62km/h | 11247m | -17.6m/s | -49.7°C | 41.1% | 0hPa | 0V | 00:00:00 | 00:00:00 | 00:00:00 | |
| LZ4TU-5 | 2026-08-30 18:55:52 | 44.13985 | 22.95799 | 104° | 60km/h | 11323m | -19.0m/s | -50.0°C | 39.7% | 0hPa | 0V | 00:00:00 | 00:00:00 | 00:00:00 | |
| LZ4TU-5 | 2026-08-30 18:54:27 | 44.14342 | 22.93972 | 108° | 53km/h | 12899m | -19.4m/s | -57.9°C | 8.9% | 0hPa | 0V | 00:00:00 | 00:00:00 | 00:00:00 | |
| LZ4TU-5 | 2026-08-30 18:54:22 | 44.14359 | 22.93887 | 109° | 51km/h | 12989m | -19.6m/s | -57.7°C | 7.5% | 0hPa | 0V | 00:00:00 | 00:00:00 | 00:00:00 | |
| LZ4TU-5 | 2026-08-30 18:53:13 | 44.14719 | 22.92776 | 133° | 46km/h | 14407m | -21.9m/s | -58.1°C | 0.0% | 0hPa | 0V | 00:00:00 | 00:00:00 | 00:00:00 | |
| LZ4TU-5 | 2026-08-30 18:53:08 | 44.14754 | 22.92721 | 128° | 38km/h | 14522m | -21.3m/s | -58.7°C | 0.0% | 0hPa | 0V | 00:00:00 | 00:00:00 | 00:00:00 | |
| LZ4TU-5 | 2026-08-30 18:51:54 | 44.14948 | 22.91825 | 126° | 15km/h | 16203m | -23.1m/s | -58.0°C | 0% | 0hPa | 0V | 00:00:00 | 00:00:00 | 00:00:00 | |
| LZ4TU-5 | 2026-08-30 18:50:46 | 44.14932 | 22.91352 | 89° | 7km/h | 17985m | -27.6m/s | -58.0°C | 0.0% | 0hPa | 0V | 00:00:00 | 00:00:00 | 00:00:00 | |
| LZ4TU-5 | 2026-08-30 18:50:42 | 44.14933 | 22.91336 | 94° | 13km/h | 18090m | -25.1m/s | -58.2°C | 0.0% | 0hPa | 0V | 00:00:00 | 00:00:00 | 00:00:00 | |
| LZ4TU-5 | 2026-08-30 18:49:07 | 44.14919 | 22.91123 | 304° | 13km/h | 20873m | -28.9m/s | -56.1°C | 0.0% | 0hPa | 0V | 00:00:00 | 00:00:00 | 00:00:00 | |
| LZ4TU-5 | 2026-08-30 18:49:02 | 44.14912 | 22.91134 | 324° | 7km/h | 21034m | -34.3m/s | -55.9°C | 0.0% | 0hPa | 0V | 00:00:00 | 00:00:00 | 00:00:00 | |
| LZ4TU-5 | 2026-08-30 18:47:47 | 44.14884 | 22.91234 | 325° | 9km/h | 23400m | -34.1m/s | -53.3°C | 0.0% | 0hPa | 0V | 00:00:00 | 00:00:00 | 00:00:00 | |
| LZ4TU-5 | 2026-08-30 18:47:42 | 44.14878 | 22.91240 | 213° | 4km/h | 23574m | -34.2m/s | -52.8°C | 0% | 0hPa | 0V | 00:00:00 | 00:00:00 | 00:00:00 | |
| LZ4TU-5 | 2026-08-30 18:45:10 | 44.14855 | 22.91429 | 123° | 18km/h | 28991m | -34.4m/s | -43.3°C | 0.0% | 0hPa | 0V | 00:00:00 | 00:00:00 | 00:00:00 | |
| LZ4TU-5 | 2026-08-30 18:45:05 | 44.14870 | 22.91410 | 173° | 11km/h | 29161m | -36.3m/s | -41.5°C | 0.0% | 0hPa | 0V | 00:00:00 | 00:00:00 | 00:00:00 | |
| LZ4TU-5 | 2026-08-30 18:43:36 | 44.14953 | 22.91336 | 209° | 33km/h | 32324m | 6.7m/s | -39.4°C | 0.0% | 0hPa | 0V | 00:00:00 | 00:00:00 | 00:00:00 | |
| LZ4TU-5 | 2026-08-30 18:43:32 | 44.14956 | 22.91360 | 356° | 24km/h | 32292m | 6.0m/s | -39.5°C | 0.0% | 0hPa | 0V | 00:00:00 | 00:00:00 | 00:00:00 | |
| LZ4TU-5 | 2026-08-30 18:42:19 | 44.15193 | 22.91469 | 88° | 18km/h | 31732m | 7.8m/s | -40.0°C | 0.0% | 0hPa | 0V | 00:00:00 | 00:00:00 | 00:00:00 | |
| LZ4TU-5 | 2026-08-30 18:42:14 | 44.15209 | 22.91465 | 149° | 20km/h | 31695m | 7.3m/s | -40.3°C | 0.0% | 0hPa | 0V | 00:00:00 | 00:00:00 | 00:00:00 | |
| LZ3DJ-18 | 2026-08-30 18:41:03 | 44.15197 | 22.91392 | 77° | 11km/h | 31187m | 8.6m/s | -42.2°C | 0.0% | 0hPa | 0V | 00:00:00 | 00:00:00 | 00:00:00 | |
| LZ4TU-5 | 2026-08-30 18:40:52 | 44.15162 | 22.91451 | 244° | 5km/h | 31115m | 7.9m/s | -42.7°C | 0.0% | 0hPa | 0V | 00:00:00 | 00:00:00 | 00:00:00 | |
| LZ4TU-5 | 2026-08-30 18:40:47 | 44.15165 | 22.91450 | 329° | 16km/h | 31083m | 5.0m/s | -43.1°C | 0.0% | 0hPa | 0V | 00:00:00 | 00:00:00 | 00:00:00 | |
| LZ4TU-5 | 2026-08-30 18:39:32 | 44.15308 | 22.91254 | 58° | 22km/h | 30566m | 8.6m/s | -44.4°C | 0.0% | 0hPa | 0V | 00:00:00 | 00:00:00 | 00:00:00 | |
| LZ4TU-5 | 2026-08-30 18:39:27 | 44.15318 | 22.91200 | 135° | 37km/h | 30526m | 9.0m/s | -44.3°C | 0.0% | 0hPa | 0V | 00:00:00 | 00:00:00 | 00:00:00 | |
| LZ3DJ-18 | 2026-08-30 18:38:49 | 44.15294 | 22.91100 | 297° | 27km/h | 30245m | 9.9m/s | -44.1°C | 0.0% | 0hPa | 0V | 00:00:00 | 00:00:00 | 00:00:00 | |
| LZ4TU-5 | 2026-08-30 18:38:13 | 44.15121 | 22.91201 | 346° | 31km/h | 29981m | 7.0m/s | -42.7°C | 0.0% | 0hPa | 0V | 00:00:00 | 00:00:00 | 00:00:00 | |
| LZ4TU-5 | 2026-08-30 18:38:09 | 44.15092 | 22.91232 | 297° | 38km/h | 29951m | 6.4m/s | -42.7°C | 0.0% | 0hPa | 0V | 00:00:00 | 00:00:00 | 00:00:00 | |
| LZ4TU-5 | 2026-08-30 18:36:45 | 44.15273 | 22.91436 | 152° | 13km/h | 29354m | 6.4m/s | -41.9°C | 0% | 0hPa | 0V | 00:00:00 | 00:00:00 | 00:00:00 | |
| LZ4TU-5 | 2026-08-30 18:36:40 | 44.15273 | 22.91413 | 16° | 4km/h | 29321m | 9.2m/s | -41.8°C | 0.0% | 0hPa | 0V | 00:00:00 | 00:00:00 | 00:00:00 | |
| LZ4TU-5 | 2026-08-30 18:35:25 | 44.15327 | 22.91258 | 182° | 16km/h | 28815m | 7.7m/s | -46.7°C | 0.0% | 0hPa | 0V | 00:00:00 | 00:00:00 | 00:00:00 | |
| LZ4TU-5 | 2026-08-30 18:35:20 | 44.15334 | 22.91273 | 306° | 20km/h | 28779m | 4.7m/s | -46.7°C | 0.0% | 0hPa | 0V | 00:00:00 | 00:00:00 | 00:00:00 | |
| LZ4TU-5 | 2026-08-30 18:34:06 | 44.15440 | 22.91018 | 102° | 15km/h | 28269m | 10.0m/s | -47.4°C | 0.0% | 0hPa | 0V | 00:00:00 | 00:00:00 | 00:00:00 | |
| LZ4TU-5 | 2026-08-30 18:34:01 | 44.15453 | 22.91016 | 169° | 16km/h | 28227m | 8.5m/s | -47.5°C | 0.0% | 0hPa | 0V | 00:00:00 | 00:00:00 | 00:00:00 | |
| LZ4TU-5 | 2026-08-30 18:32:47 | 44.15283 | 22.90795 | 305° | 22km/h | 27695m | 7.7m/s | -47.0°C | 0.0% | 0hPa | 0V | 00:00:00 | 00:00:00 | 00:00:00 | |
| LZ4TU-5 | 2026-08-30 18:32:42 | 44.15273 | 22.90791 | 263° | 7km/h | 27660m | 6.4m/s | -47.0°C | 0% | 0hPa | 0V | 00:00:00 | 00:00:00 | 00:00:00 | |
| LZ4TU-5 | 2026-08-30 18:31:27 | 44.15423 | 22.90918 | 140° | 20km/h | 27127m | 6.6m/s | -47.7°C | 0.0% | 0hPa | 0V | 00:00:00 | 00:00:00 | 00:00:00 | |
| LZ4TU-5 | 2026-08-30 18:31:22 | 44.15434 | 22.90887 | 89° | 15km/h | 27092m | 6.7m/s | -47.8°C | 0.0% | 0hPa | 0V | 00:00:00 | 00:00:00 | 00:00:00 | |
| LZ4TU-5 | 2026-08-30 18:30:09 | 44.15320 | 22.90783 | 6° | 9km/h | 26590m | 7.3m/s | -49.3°C | 0.0% | 0hPa | 0V | 00:00:00 | 00:00:00 | 00:00:00 | |
| LZ4TU-5 | 2026-08-30 18:30:04 | 44.15313 | 22.90808 | 235° | 16km/h | 26552m | 7.1m/s | -49.5°C | 0.0% | 0hPa | 0V | 00:00:00 | 00:00:00 | 00:00:00 | |
| LZ4TU-5 | 2026-08-30 18:28:41 | 44.15392 | 22.91117 | 349° | 20km/h | 25974m | 6.1m/s | -51.6°C | 0.0% | 0hPa | 0V | 00:00:00 | 00:00:00 | 00:00:00 | |
| LZ4TU-5 | 2026-08-30 18:28:36 | 44.15377 | 22.91130 | 293° | 18km/h | 25942m | 7.4m/s | -51.5°C | 0.0% | 0hPa | 0V | 00:00:00 | 00:00:00 | 00:00:00 | |
| OM5KV | 2026-08-30 18:28:32 | 44.15369 | 22.91155 | 286° | 13km/h | 25916m | 7.7m/s | -51.4°C | 0.0% | 0hPa | 0V | 00:00:00 | 00:00:00 | 00:00:00 | |
| OM5KV | 2026-08-30 18:28:25 | 44.15359 | 22.91170 | 296° | 22km/h | 25866m | 7.3m/s | -51.4°C | 0.0% | 0hPa | 0V | 00:00:00 | 00:00:00 | 00:00:00 | |
| OM5KV | 2026-08-30 18:28:01 | 44.15348 | 22.91254 | 349° | 9km/h | 25696m | 5.5m/s | -51.1°C | 0.0% | 0hPa | 0V | 00:00:00 | 00:00:00 | 00:00:00 | |
| OM5KV | 2026-08-30 18:27:32 | 44.15333 | 22.91295 | 331° | 24km/h | 25501m | 6.3m/s | -52.4°C | 0.0% | 0hPa | 0V | 00:00:00 | 00:00:00 | 00:00:00 | |
| OM5KV | 2026-08-30 18:27:31 | 44.15327 | 22.91299 | 339° | 26km/h | 25495m | 5.0m/s | -52.5°C | 0.0% | 0hPa | 0V | 00:00:00 | 00:00:00 | 00:00:00 | |
| OM5KV | 2026-08-30 18:27:26 | 44.15307 | 22.91306 | 261° | 15km/h | 25464m | 7.0m/s | -52.6°C | 0.0% | 0hPa | 0V | 00:00:00 | 00:00:00 | 00:00:00 | |
| OM5KV | 2026-08-30 18:27:23 | 44.15311 | 22.91321 | 256° | 13km/h | 25443m | 5.3m/s | -52.5°C | 0.0% | 0hPa | 0V | 00:00:00 | 00:00:00 | 00:00:00 | |
| OM5KV | 2026-08-30 18:27:20 | 44.15307 | 22.91337 | 315° | 20km/h | 25424m | 4.5m/s | -52.6°C | 0.0% | 0hPa | 0V | 00:00:00 | 00:00:00 | 00:00:00 | |
| OM5KV | 2026-08-30 18:27:09 | 44.15285 | 22.91409 | 281° | 26km/h | 25360m | 8.9m/s | -52.6°C | 0.0% | 0hPa | 0V | 00:00:00 | 00:00:00 | 00:00:00 | |
| LZ4TU-5 | 2026-08-30 18:27:06 | 44.15280 | 22.91432 | 285° | 22km/h | 25333m | 9.4m/s | -52.5°C | 0.0% | 0hPa | 0V | 00:00:00 | 00:00:00 | 00:00:00 | |
| LZ4TU-5 | 2026-08-30 18:27:01 | 44.15268 | 22.91473 | 299° | 26km/h | 25297m | 5.2m/s | -52.5°C | 0.0% | 0hPa | 0V | 00:00:00 | 00:00:00 | 00:00:00 | |
| OM5KV | 2026-08-30 18:26:57 | 44.15269 | 22.91507 | 241° | 16km/h | 25271m | 8.2m/s | -52.6°C | 0.0% | 0hPa | 0V | 00:00:00 | 00:00:00 | 00:00:00 | |
| OM5KV | 2026-08-30 18:26:51 | 44.15266 | 22.91540 | 297° | 18km/h | 25229m | 5.2m/s | -52.8°C | 0.0% | 0hPa | 0V | 00:00:00 | 00:00:00 | 00:00:00 | |
| OM5KV | 2026-08-30 18:26:38 | 44.15280 | 22.91641 | 266° | 13km/h | 25139m | 7.5m/s | -52.6°C | 0.0% | 0hPa | 0V | 00:00:00 | 00:00:00 | 00:00:00 | |
| OM5KV | 2026-08-30 18:26:36 | 44.15282 | 22.91655 | 256° | 29km/h | 25125m | 6.9m/s | -52.5°C | 0.0% | 0hPa | 0V | 00:00:00 | 00:00:00 | 00:00:00 | |
| OM5KV | 2026-08-30 18:26:32 | 44.15293 | 22.91688 | 236° | 22km/h | 25098m | 6.4m/s | -52.5°C | 0.0% | 0hPa | 0V | 00:00:00 | 00:00:00 | 00:00:00 | |
| OM5KV | 2026-08-30 18:26:29 | 44.15306 | 22.91696 | 168° | 15km/h | 25079m | 4.7m/s | -52.4°C | 0.0% | 0hPa | 0V | 00:00:00 | 00:00:00 | 00:00:00 | |
| OM5KV | 2026-08-30 18:26:19 | 44.15322 | 22.91749 | 211° | 16km/h | 25014m | 9.2m/s | -52.5°C | 0.0% | 0hPa | 0V | 00:00:00 | 00:00:00 | 00:00:00 | |
| OM5KV | 2026-08-30 18:26:13 | 44.15329 | 22.91738 | 274° | 15km/h | 24972m | 9.7m/s | -52.6°C | 0.0% | 0hPa | 0V | 00:00:00 | 00:00:00 | 00:00:00 | |
| OM5KV | 2026-08-30 18:26:04 | 44.15352 | 22.91762 | 90° | 13km/h | 24918m | 4.9m/s | -52.9°C | 0.0% | 0hPa | 0V | 00:00:00 | 00:00:00 | 00:00:00 | |
| OM5KV | 2026-08-30 18:25:49 | 44.15374 | 22.91747 | 258° | 20km/h | 24815m | 8.8m/s | -52.9°C | 0.0% | 0hPa | 0V | 00:00:00 | 00:00:00 | 00:00:00 | |
| LZ4TU-5 | 2026-08-30 18:25:46 | 44.15376 | 22.91768 | 253° | 15km/h | 24795m | 5.5m/s | -52.8°C | 0.0% | 0hPa | 0V | 00:00:00 | 00:00:00 | 00:00:00 | |
| LZ4TU-5 | 2026-08-30 18:25:42 | 44.15387 | 22.91764 | 111° | 18km/h | 24770m | 6.7m/s | -52.6°C | 0.0% | 0hPa | 0V | 00:00:00 | 00:00:00 | 00:00:00 | |
| OM5KV | 2026-08-30 18:25:21 | 44.15384 | 22.91722 | 66° | 11km/h | 24631m | 4.7m/s | -52.9°C | 0.0% | 0hPa | 0V | 00:00:00 | 00:00:00 | 00:00:00 | |
| OM5KV | 2026-08-30 18:25:08 | 44.15371 | 22.91688 | 41° | 26km/h | 24538m | 5.6m/s | -52.9°C | 0.0% | 0hPa | 0V | 00:00:00 | 00:00:00 | 00:00:00 | |
| OM5KV | 2026-08-30 18:25:00 | 44.15352 | 22.91685 | 299° | 16km/h | 24490m | 5.8m/s | -52.8°C | 0.0% | 0hPa | 0V | 00:00:00 | 00:00:00 | 00:00:00 | |
| OM5KV | 2026-08-30 18:24:53 | 44.15344 | 22.91686 | 322° | 11km/h | 24444m | 7.9m/s | -53.1°C | 0.0% | 0hPa | 0V | 00:00:00 | 00:00:00 | 00:00:00 | |
| OM5KV | 2026-08-30 18:24:40 | 44.15319 | 22.91750 | 287° | 16km/h | 24358m | 7.5m/s | -53.4°C | 0.0% | 0hPa | 0V | 00:00:00 | 00:00:00 | 00:00:00 | |
| OM5KV | 2026-08-30 18:24:34 | 44.15301 | 22.91803 | 287° | 24km/h | 24316m | 8.0m/s | -53.4°C | 0.0% | 0hPa | 0V | 00:00:00 | 00:00:00 | 00:00:00 | |
| OM5KV | 2026-08-30 18:24:29 | 44.15298 | 22.91834 | 281° | 22km/h | 24285m | 6.2m/s | -53.2°C | 0.0% | 0hPa | 0V | 00:00:00 | 00:00:00 | 00:00:00 | |
| LZ4TU-5 | 2026-08-30 18:24:27 | 44.15297 | 22.91853 | 274° | 33km/h | 24275m | 5.6m/s | -53.1°C | 0.0% | 0hPa | 0V | 00:00:00 | 00:00:00 | 00:00:00 | |
| OM5KV | 2026-08-30 18:24:23 | 44.15288 | 22.91897 | 291° | 26km/h | 24248m | 8.2m/s | -53.1°C | 0.0% | 0hPa | 0V | 00:00:00 | 00:00:00 | 00:00:00 | |
| LZ4TU-5 | 2026-08-30 18:24:22 | 44.15286 | 22.91905 | 272° | 20km/h | 24241m | 8.1m/s | -53.1°C | 0.0% | 0hPa | 0V | 00:00:00 | 00:00:00 | 00:00:00 | |
| OM5KV | 2026-08-30 18:24:17 | 44.15288 | 22.91920 | 281° | 16km/h | 24204m | 7.7m/s | -53.0°C | 0.0% | 0hPa | 0V | 00:00:00 | 00:00:00 | 00:00:00 | |
| OM5KV | 2026-08-30 18:24:10 | 44.15275 | 22.91973 | 240° | 16km/h | 24154m | 9.5m/s | -53.0°C | 0.0% | 0hPa | 0V | 00:00:00 | 00:00:00 | 00:00:00 | |
| LZ4TU-5 | 2026-08-30 18:23:07 | 44.15196 | 22.92150 | 150° | 15km/h | 23731m | 4.6m/s | -53.6°C | 0.0% | 0hPa | 0V | 00:00:00 | 00:00:00 | 00:00:00 | |
| LZ4TU-5 | 2026-08-30 18:21:46 | 44.15135 | 22.92305 | 227° | 15km/h | 23216m | 6.1m/s | -53.6°C | 0.0% | 0hPa | 0V | 00:00:00 | 00:00:00 | 00:00:00 | |
| LZ4TU-5 | 2026-08-30 18:21:41 | 44.15147 | 22.92327 | 250° | 26km/h | 23187m | 7.5m/s | -54.0°C | 0.0% | 0hPa | 0V | 00:00:00 | 00:00:00 | 00:00:00 | |
| LZ4TU-5 | 2026-08-30 18:20:14 | 44.15098 | 22.92449 | 235° | 5km/h | 22646m | 6.2m/s | -55.2°C | 0.0% | 0hPa | 0V | 00:00:00 | 00:00:00 | 00:00:00 | |
| LZ4TU-5 | 2026-08-30 18:20:10 | 44.15090 | 22.92452 | 31° | 11km/h | 22615m | 7.6m/s | -55.3°C | 0.0% | 0hPa | 0V | 00:00:00 | 00:00:00 | 00:00:00 | |
| LZ4TU-5 | 2026-08-30 18:18:54 | 44.15080 | 22.92431 | 228° | 7km/h | 22111m | 6.2m/s | -55.8°C | 0.0% | 0hPa | 0V | 00:00:00 | 00:00:00 | 00:00:00 | |
| LZ4TU-5 | 2026-08-30 18:18:49 | 44.15084 | 22.92432 | 51° | 20km/h | 22081m | 7.1m/s | -55.8°C | 0.0% | 0hPa | 0V | 00:00:00 | 00:00:00 | 00:00:00 | |
| LZ4TU-5 | 2026-08-30 18:17:34 | 44.14970 | 22.92365 | 323° | 7km/h | 21591m | 5.3m/s | -56.3°C | 0.0% | 0hPa | 0V | 00:00:00 | 00:00:00 | 00:00:00 | |
| LZ4TU-5 | 2026-08-30 18:17:30 | 44.14950 | 22.92375 | 342° | 26km/h | 21565m | 6.1m/s | -56.5°C | 0.0% | 0hPa | 0V | 00:00:00 | 00:00:00 | 00:00:00 | |
| LZ4TU-5 | 2026-08-30 18:16:15 | 44.14778 | 22.92525 | 282° | 22km/h | 21103m | 6.6m/s | -55.3°C | 0.0% | 0hPa | 0V | 00:00:00 | 00:00:00 | 00:00:00 | |
| LZ4TU-5 | 2026-08-30 18:16:10 | 44.14783 | 22.92550 | 236° | 11km/h | 21072m | 6.6m/s | -55.3°C | 0.0% | 0hPa | 0V | 00:00:00 | 00:00:00 | 00:00:00 | |
| LZ4TU-5 | 2026-08-30 18:14:57 | 44.14682 | 22.92806 | 287° | 18km/h | 20620m | 6.7m/s | -55.4°C | 0.0% | 0hPa | 0V | 00:00:00 | 00:00:00 | 00:00:00 | |
| LZ4TU-5 | 2026-08-30 18:14:52 | 44.14681 | 22.92816 | 311° | 4km/h | 20587m | 4.7m/s | -55.5°C | 0.0% | 0hPa | 0V | 00:00:00 | 00:00:00 | 00:00:00 | |
| LZ4TU-5 | 2026-08-30 18:13:37 | 44.14762 | 22.92812 | 338° | 2km/h | 20113m | 6.2m/s | -56.6°C | 0.0% | 0hPa | 0V | 00:00:00 | 00:00:00 | 00:00:00 | |
| LZ4TU-5 | 2026-08-30 18:13:32 | 44.14752 | 22.92811 | 338° | 13km/h | 20081m | 5.5m/s | -56.5°C | 0% | 0hPa | 0V | 00:00:00 | 00:00:00 | 00:00:00 | |
| LZ4TU-5 | 2026-08-30 18:12:17 | 44.14775 | 22.92773 | 46° | 11km/h | 19614m | 5.6m/s | -56.1°C | 0.0% | 0hPa | 0V | 00:00:00 | 00:00:00 | 00:00:00 | |
| LZ4TU-5 | 2026-08-30 18:12:12 | 44.14770 | 22.92757 | 19° | 9km/h | 19584m | 7.4m/s | -55.9°C | 0.0% | 0hPa | 0V | 00:00:00 | 00:00:00 | 00:00:00 | |
| LZ4TU-5 | 2026-08-30 18:10:57 | 44.14753 | 22.92657 | 85° | 11km/h | 19143m | 7.3m/s | -56.3°C | 0.0% | 0hPa | 0V | 00:00:00 | 00:00:00 | 00:00:00 | |
| LZ4TU-5 | 2026-08-30 18:10:52 | 44.14746 | 22.92628 | 76° | 29km/h | 19112m | 6.7m/s | -56.1°C | 0.0% | 0hPa | 0V | 00:00:00 | 00:00:00 | 00:00:00 | |
| LZ4TU-5 | 2026-08-30 18:09:37 | 44.14830 | 22.92265 | 108° | 26km/h | 18648m | 6.6m/s | -57.2°C | 0.0% | 0hPa | 0V | 00:00:00 | 00:00:00 | 00:00:00 | |
| LZ4TU-5 | 2026-08-30 18:09:32 | 44.14830 | 22.92226 | 57° | 22km/h | 18619m | 4.9m/s | -57.1°C | 0.0% | 0hPa | 0V | 00:00:00 | 00:00:00 | 00:00:00 | |
| LZ4TU-5 | 2026-08-30 18:08:17 | 44.14639 | 22.91917 | 51° | 20km/h | 18155m | 3.6m/s | -57.9°C | 0.0% | 0hPa | 0V | 00:00:00 | 00:00:00 | 00:00:00 | |
| LZ4TU-5 | 2026-08-30 18:08:12 | 44.14641 | 22.91886 | 99° | 22km/h | 18125m | 5.8m/s | -58.3°C | 0.0% | 0hPa | 0V | 00:00:00 | 00:00:00 | 00:00:00 | |
| LZ4TU-5 | 2026-08-30 18:06:58 | 44.14668 | 22.91814 | 255° | 7km/h | 17675m | 6.0m/s | -58.0°C | 0.0% | 0hPa | 0V | 00:00:00 | 00:00:00 | 00:00:00 | |
| LZ4TU-5 | 2026-08-30 18:06:53 | 44.14691 | 22.91839 | 207° | 31km/h | 17649m | 4.6m/s | -57.8°C | 0.0% | 0hPa | 0V | 00:00:00 | 00:00:00 | 00:00:00 | |
| LZ4TU-5 | 2026-08-30 18:06:48 | 44.14709 | 22.91832 | 156° | 13km/h | 17616m | 5.8m/s | -57.7°C | 0.0% | 0hPa | 0V | 00:00:00 | 00:00:00 | 00:00:00 | |
| LZ4TU-5 | 2026-08-30 18:05:34 | 44.15123 | 22.91244 | 102° | 44km/h | 17155m | 5.1m/s | -58.3°C | 0.0% | 0hPa | 0V | 00:00:00 | 00:00:00 | 00:00:00 | |
| LZ4TU-5 | 2026-08-30 18:05:29 | 44.15137 | 22.91175 | 100° | 42km/h | 17127m | 5.0m/s | -58.7°C | 0.0% | 0hPa | 0V | 00:00:00 | 00:00:00 | 00:00:00 | |
| LZ4TU-5 | 2026-08-30 18:04:15 | 44.14932 | 22.90263 | 50° | 33km/h | 16695m | 6.9m/s | -58.2°C | 0.0% | 0hPa | 0V | 00:00:00 | 00:00:00 | 00:00:00 | |
| LZ4TU-5 | 2026-08-30 18:04:10 | 44.14906 | 22.90230 | 33° | 31km/h | 16662m | 6.7m/s | -58.3°C | 0.1% | 0hPa | 0V | 00:00:00 | 00:00:00 | 00:00:00 | |
| LZ4TU-5 | 2026-08-30 18:02:55 | 44.14817 | 22.89901 | 114° | 38km/h | 16185m | 6.4m/s | -58.6°C | 1.4% | 0hPa | 0V | 00:00:00 | 00:00:00 | 00:00:00 | |
| LZ4TU-5 | 2026-08-30 18:02:50 | 44.14842 | 22.89849 | 122° | 26km/h | 16160m | 5.6m/s | -58.5°C | 0% | 0hPa | 0V | 00:00:00 | 00:00:00 | 00:00:00 | |
| LZ4TU-5 | 2026-08-30 18:01:37 | 44.15142 | 22.89114 | 143° | 40km/h | 15760m | 6.3m/s | -59.7°C | 2.7% | 0hPa | 0V | 00:00:00 | 00:00:00 | 00:00:00 | |
| LZ4TU-5 | 2026-08-30 18:01:32 | 44.15183 | 22.89076 | 141° | 35km/h | 15730m | 5.4m/s | -59.8°C | 2.8% | 0hPa | 0V | 00:00:00 | 00:00:00 | 00:00:00 | |
| LZ4TU-5 | 2026-08-30 18:00:13 | 44.15534 | 22.88013 | 100° | 49km/h | 15275m | 7.6m/s | -59.3°C | 5.4% | 0hPa | 0V | 00:00:00 | 00:00:00 | 00:00:00 | |
| LZ4TU-5 | 2026-08-30 18:00:09 | 44.15540 | 22.87954 | 97° | 40km/h | 15252m | 4.6m/s | -59.1°C | 5.5% | 0hPa | 0V | 00:00:00 | 00:00:00 | 00:00:00 | |
| LZ4TU-5 | 2026-08-30 17:58:49 | 44.15546 | 22.86865 | 106° | 51km/h | 14799m | 5.0m/s | -58.9°C | 10.1% | 0hPa | 0V | 00:00:00 | 00:00:00 | 00:00:00 | |
| LZ4TU-5 | 2026-08-30 17:58:44 | 44.15546 | 22.86773 | 90° | 60km/h | 14770m | 3.8m/s | -59.1°C | 0% | 0hPa | 0V | 00:00:00 | 00:00:00 | 00:00:00 | |
| LZ4TU-5 | 2026-08-30 17:57:25 | 44.15927 | 22.85525 | 125° | 58km/h | 14273m | 4.3m/s | -60.3°C | 14.7% | 0hPa | 0V | 00:00:00 | 00:00:00 | 00:00:00 | |
| LZ4TU-5 | 2026-08-30 17:57:21 | 44.15950 | 22.85450 | 106° | 60km/h | 14246m | 7.2m/s | -60.1°C | 14.8% | 0hPa | 0V | 00:00:00 | 00:00:00 | 00:00:00 | |
| LZ4TU-5 | 2026-08-30 17:55:55 | 44.16239 | 22.84047 | 103° | 35km/h | 13756m | 4.2m/s | -59.7°C | 19.9% | 0hPa | 0V | 00:00:00 | 00:00:00 | 00:00:00 | |
| LZ4TU-5 | 2026-08-30 17:55:51 | 44.16253 | 22.83982 | 107° | 51km/h | 13734m | 5.3m/s | -59.6°C | 20.2% | 0hPa | 0V | 00:00:00 | 00:00:00 | 00:00:00 | |
| LZ4TU-5 | 2026-08-30 17:54:23 | 44.16821 | 22.82773 | 136° | 73km/h | 13252m | 9.2m/s | -58.6°C | 26.7% | 0hPa | 0V | 00:00:00 | 00:00:00 | 00:00:00 | |
| LZ4TU-5 | 2026-08-30 17:54:18 | 44.16863 | 22.82674 | 104° | 68km/h | 13209m | 7.0m/s | -58.5°C | 0% | 0hPa | 0V | 00:00:00 | 00:00:00 | 00:00:00 | |
| LZ4TU-5 | 2026-08-30 17:52:59 | 44.17166 | 22.81204 | 101° | 64km/h | 12745m | 9.6m/s | -58.0°C | 34.4% | 0hPa | 0V | 00:00:00 | 00:00:00 | 00:00:00 | |
| LZ4TU-5 | 2026-08-30 17:52:55 | 44.17181 | 22.81145 | 103° | 40km/h | 12717m | 4.2m/s | -57.8°C | 34.7% | 0hPa | 0V | 00:00:00 | 00:00:00 | 00:00:00 | |
| LZ4TU-5 | 2026-08-30 17:51:31 | 44.17551 | 22.79512 | 107° | 47km/h | 12208m | 5.8m/s | -55.8°C | 37.9% | 0hPa | 0V | 00:00:00 | 00:00:00 | 00:00:00 | |
| LZ4TU-5 | 2026-08-30 17:51:26 | 44.17578 | 22.79412 | 109° | 64km/h | 12180m | 6.6m/s | -55.6°C | 37.9% | 0hPa | 0V | 00:00:00 | 00:00:00 | 00:00:00 | |
| LZ4TU-5 | 2026-08-30 17:50:07 | 44.18022 | 22.77818 | 122° | 60km/h | 11737m | 6.8m/s | -52.8°C | 39.7% | 0hPa | 0V | 00:00:00 | 00:00:00 | 00:00:00 | |
| LZ4TU-5 | 2026-08-30 17:50:02 | 44.18042 | 22.77730 | 105° | 66km/h | 11704m | 5.7m/s | -52.7°C | 0% | 0hPa | 0V | 00:00:00 | 00:00:00 | 00:00:00 | |
| LZ4TU-5 | 2026-08-30 17:48:45 | 44.18486 | 22.76101 | 107° | 75km/h | 11241m | 3.9m/s | -49.4°C | 35.9% | 0hPa | 0V | 00:00:00 | 00:00:00 | 00:00:00 | |
| LZ4TU-5 | 2026-08-30 17:48:41 | 44.18510 | 22.76013 | 113° | 55km/h | 11218m | 6.8m/s | -49.2°C | 35.4% | 0hPa | 0V | 00:00:00 | 00:00:00 | 00:00:00 | |
| LZ4TU-5 | 2026-08-30 17:47:24 | 44.18889 | 22.74448 | 117° | 57km/h | 10796m | 6.1m/s | -46.0°C | 34.1% | 0hPa | 0V | 00:00:00 | 00:00:00 | 00:00:00 | |
| LZ4TU-5 | 2026-08-30 17:47:19 | 44.18923 | 22.74353 | 113° | 69km/h | 10773m | 4.4m/s | -45.8°C | 34.1% | 0hPa | 0V | 00:00:00 | 00:00:00 | 00:00:00 | |
| LZ4TU-5 | 2026-08-30 17:45:59 | 44.19242 | 22.72775 | 116° | 44km/h | 10350m | 6.8m/s | -42.7°C | 27.5% | 0hPa | 0V | 00:00:00 | 00:00:00 | 00:00:00 | |
| LZ4TU-5 | 2026-08-30 17:45:54 | 44.19267 | 22.72696 | 108° | 66km/h | 10320m | 5.6m/s | -42.6°C | 0% | 0hPa | 0V | 00:00:00 | 00:00:00 | 00:00:00 | |
| LZ4TU-5 | 2026-08-30 17:44:34 | 44.19540 | 22.71058 | 112° | 75km/h | 9898m | 4.8m/s | -39.6°C | 27.2% | 0hPa | 0V | 00:00:00 | 00:00:00 | 00:00:00 | |
| LZ4TU-5 | 2026-08-30 17:44:29 | 44.19557 | 22.70949 | 90° | 62km/h | 9874m | 6.3m/s | -39.4°C | 29.4% | 0hPa | 0V | 00:00:00 | 00:00:00 | 00:00:00 | |
| LZ4TU-5 | 2026-08-30 17:43:12 | 44.19786 | 22.69208 | 97° | 60km/h | 9478m | 5.0m/s | -36.1°C | 36.2% | 0hPa | 0V | 00:00:00 | 00:00:00 | 00:00:00 | |
| LZ4TU-5 | 2026-08-30 17:43:07 | 44.19782 | 22.69097 | 83° | 64km/h | 9457m | 3.8m/s | -35.9°C | 35.1% | 0hPa | 0V | 00:00:00 | 00:00:00 | 00:00:00 | |
| LZ4TU-5 | 2026-08-30 17:41:47 | 44.19977 | 22.67387 | 92° | 73km/h | 9023m | 4.9m/s | -32.3°C | 17.4% | 0hPa | 0V | 00:00:00 | 00:00:00 | 00:00:00 | |
| LZ4TU-5 | 2026-08-30 17:41:42 | 44.19995 | 22.67284 | 116° | 58km/h | 8996m | 4.3m/s | -32.1°C | 0% | 0hPa | 0V | 00:00:00 | 00:00:00 | 00:00:00 | |
| LZ4TU-5 | 2026-08-30 17:40:22 | 44.20323 | 22.65762 | 111° | 58km/h | 8546m | 6.4m/s | -29.0°C | 50.2% | 0hPa | 0V | 00:00:00 | 00:00:00 | 00:00:00 | |
| LZ4TU-5 | 2026-08-30 17:40:18 | 44.20350 | 22.65679 | 112° | 58km/h | 8525m | 5.6m/s | -28.8°C | 52.2% | 0hPa | 0V | 00:00:00 | 00:00:00 | 00:00:00 | |
| LZ4TU-5 | 2026-08-30 17:38:51 | 44.20823 | 22.64002 | 136° | 68km/h | 8054m | 5.2m/s | -25.0°C | 45.4% | 0hPa | 0V | 00:00:00 | 00:00:00 | 00:00:00 | |
| LZ4TU-5 | 2026-08-30 17:38:46 | 44.20864 | 22.63930 | 105° | 62km/h | 8023m | 7.3m/s | -24.8°C | 45.1% | 0hPa | 0V | 00:00:00 | 00:00:00 | 00:00:00 | |
| LZ4TU-5 | 2026-08-30 17:37:33 | 44.21249 | 22.62614 | 116° | 84km/h | 7617m | 3.6m/s | -21.5°C | 48.2% | 0hPa | 0V | 00:00:00 | 00:00:00 | 00:00:00 | |
| LZ4TU-5 | 2026-08-30 17:37:29 | 44.21283 | 22.62532 | 122° | 44km/h | 7596m | 7.8m/s | -21.4°C | 0% | 0hPa | 0V | 00:00:00 | 00:00:00 | 00:00:00 | |
| LZ4TU-5 | 2026-08-30 17:36:12 | 44.21747 | 22.61412 | 115° | 47km/h | 7148m | 7.2m/s | -17.9°C | 20.7% | 0hPa | 0V | 00:00:00 | 00:00:00 | 00:00:00 | |
| LZ4TU-5 | 2026-08-30 17:34:59 | 44.22124 | 22.60292 | 107° | 49km/h | 6734m | 5.7m/s | -15.2°C | 38.3% | 0hPa | 0V | 00:00:00 | 00:00:00 | 00:00:00 | |
| LZ4TU-5 | 2026-08-30 17:34:54 | 44.22140 | 22.60235 | 140° | 38km/h | 6700m | 5.5m/s | -15.0°C | 36.9% | 0hPa | 0V | 00:00:00 | 00:00:00 | 00:00:00 | |
| LZ4TU-5 | 2026-08-30 17:33:36 | 44.22528 | 22.59370 | 90° | 37km/h | 6272m | 3.8m/s | -11.5°C | 30.5% | 0hPa | 0V | 00:00:00 | 00:00:00 | 00:00:00 | |
| LZ4TU-5 | 2026-08-30 17:33:31 | 44.22545 | 22.59318 | 154° | 37km/h | 6244m | 4.5m/s | -11.4°C | 24.6% | 0hPa | 0V | 00:00:00 | 00:00:00 | 00:00:00 | |
| LZ4TU-5 | 2026-08-30 17:33:27 | 44.22574 | 22.59261 | 107° | 60km/h | 6222m | 5.8m/s | -11.3°C | 22.4% | 0hPa | 0V | 00:00:00 | 00:00:00 | 00:00:00 | |
| LZ4TU-5 | 2026-08-30 17:33:22 | 44.22575 | 22.59186 | 94° | 29km/h | 6198m | 4.8m/s | -11.5°C | 37.3% | 0hPa | 0V | 00:00:00 | 00:00:00 | 00:00:00 | |
| LZ4TU-5 | 2026-08-30 17:33:17 | 44.22604 | 22.59125 | 145° | 42km/h | 6166m | 6.6m/s | -11.6°C | 0% | 0hPa | 0V | 00:00:00 | 00:00:00 | 00:00:00 | |
| LZ4TU-5 | 2026-08-30 17:32:09 | 44.22808 | 22.58283 | 109° | 42km/h | 5786m | 6.3m/s | -8.7°C | 34.4% | 0hPa | 0V | 00:00:00 | 00:00:00 | 00:00:00 | |
| LZ4TU-5 | 2026-08-30 17:32:04 | 44.22830 | 22.58249 | 146° | 31km/h | 5758m | 4.8m/s | -8.6°C | 32.4% | 0hPa | 0V | 00:00:00 | 00:00:00 | 00:00:00 | |
| LZ4TU-5 | 2026-08-30 17:30:57 | 44.23145 | 22.57352 | 112° | 42km/h | 5418m | 6.7m/s | -6.6°C | 48.7% | 0hPa | 0V | 00:00:00 | 00:00:00 | 00:00:00 | |
| LZ4TU-5 | 2026-08-30 17:30:52 | 44.23170 | 22.57323 | 150° | 35km/h | 5396m | 3.4m/s | -6.4°C | 0% | 0hPa | 0V | 00:00:00 | 00:00:00 | 00:00:00 | |
| LZ4TU-5 | 2026-08-30 17:29:46 | 44.23459 | 22.56458 | 121° | 49km/h | 5009m | 6.5m/s | -4.0°C | 51.4% | 0hPa | 0V | 00:00:00 | 00:00:00 | 00:00:00 | |
| LZ4TU-5 | 2026-08-30 17:29:41 | 44.23485 | 22.56375 | 99° | 64km/h | 4979m | 4.8m/s | -3.7°C | 50.3% | 0hPa | 0V | 00:00:00 | 00:00:00 | 00:00:00 | |
| LZ4TU-5 | 2026-08-30 17:28:35 | 44.23765 | 22.55338 | 118° | 51km/h | 4596m | 4.6m/s | -0.5°C | 23.3% | 0hPa | 0V | 00:00:00 | 00:00:00 | 00:00:00 | |
| LZ4TU-5 | 2026-08-30 17:28:30 | 44.23801 | 22.55277 | 107° | 33km/h | 4567m | 5.2m/s | -0.4°C | 12.0% | 0hPa | 0V | 00:00:00 | 00:00:00 | 00:00:00 | |
| LZ4TU-5 | 2026-08-30 17:27:22 | 44.24120 | 22.54504 | 109° | 18km/h | 4185m | 7.3m/s | 0.2°C | 25.2% | 0hPa | 0V | 00:00:00 | 00:00:00 | 00:00:00 | |
| LZ4TU-5 | 2026-08-30 17:27:17 | 44.24117 | 22.54464 | 107° | 42km/h | 4155m | 6.1m/s | 0.4°C | 26.1% | 0hPa | 0V | 00:00:00 | 00:00:00 | 00:00:00 | |
| LZ4TU-5 | 2026-08-30 17:26:10 | 44.24200 | 22.54002 | 154° | 29km/h | 3765m | 6.8m/s | 3.3°C | 26.9% | 0hPa | 0V | 00:00:00 | 00:00:00 | 00:00:00 | |
| LZ4TU-5 | 2026-08-30 17:26:06 | 44.24217 | 22.53986 | 115° | 22km/h | 3744m | 5.5m/s | 3.5°C | 25.9% | 0hPa | 0V | 00:00:00 | 00:00:00 | 00:00:00 | |
| LZ4TU-5 | 2026-08-30 17:24:37 | 44.24382 | 22.53553 | 54° | 20km/h | 3253m | 5.0m/s | 6.8°C | 39.2% | 0hPa | 0V | 00:00:00 | 00:00:00 | 00:00:00 | |
| LZ4TU-5 | 2026-08-30 17:24:32 | 44.24395 | 22.53527 | 204° | 22km/h | 3225m | 5.3m/s | 7.0°C | 0% | 0hPa | 0V | 00:00:00 | 00:00:00 | 00:00:00 | |
| LZ4TU-5 | 2026-08-30 17:23:31 | 44.24443 | 22.53227 | 155° | 15km/h | 2890m | 5.9m/s | 8.4°C | 44.3% | 0hPa | 0V | 00:00:00 | 00:00:00 | 00:00:00 | |
| LZ4TU-5 | 2026-08-30 17:23:27 | 44.24462 | 22.53220 | 133° | 20km/h | 2870m | 4.7m/s | 8.7°C | 43.6% | 0hPa | 0V | 00:00:00 | 00:00:00 | 00:00:00 | |
| LZ4TU-5 | 2026-08-30 17:22:24 | 44.24427 | 22.52962 | 49° | 16km/h | 2506m | 5.4m/s | 11.1°C | 53.0% | 0hPa | 0V | 00:00:00 | 00:00:00 | 00:00:00 | |
| LZ4TU-5 | 2026-08-30 17:22:19 | 44.24441 | 22.52941 | 115° | 26km/h | 2478m | 4.7m/s | 11.3°C | 0% | 0hPa | 0V | 00:00:00 | 00:00:00 | 00:00:00 | |
| LZ4TU-5 | 2026-08-30 17:21:17 | 44.24419 | 22.52786 | 6° | 5km/h | 2116m | 7.7m/s | 13.8°C | 60.4% | 0hPa | 0V | 00:00:00 | 00:00:00 | 00:00:00 | |
| LZ4TU-5 | 2026-08-30 17:21:12 | 44.24412 | 22.52790 | 68° | 16km/h | 2087m | 6.2m/s | 14.0°C | 59.6% | 0hPa | 0V | 00:00:00 | 00:00:00 | 00:00:00 | |
| LZ4TU-5 | 2026-08-30 17:20:07 | 44.24318 | 22.52795 | 39° | 18km/h | 1742m | 4.7m/s | 16.9°C | 56.1% | 0hPa | 0V | 00:00:00 | 00:00:00 | 00:00:00 | |
| LZ4TU-5 | 2026-08-30 17:20:02 | 44.24314 | 22.52803 | 231° | 13km/h | 1714m | 5.5m/s | 17.1°C | 57.7% | 0hPa | 0V | 00:00:00 | 00:00:00 | 00:00:00 | |
| LZ4TU-5 | 2026-08-30 17:19:57 | 44.24315 | 22.52821 | 295° | 15km/h | 1688m | 5.1m/s | 17.2°C | 58.7% | 0hPa | 0V | 00:00:00 | 00:00:00 | 00:00:00 | |
| LZ4TU-5 | 2026-08-30 17:18:55 | 44.24202 | 22.52896 | 289° | 7km/h | 1365m | 5.3m/s | 19.8°C | 52.2% | 0hPa | 0V | 00:00:00 | 00:00:00 | 00:00:00 |